createdAt,value
2022-11-29T00:00:54.893Z,88.55
2022-11-29T00:02:26.836Z,88.37
2022-11-29T00:03:58.801Z,88.30
2022-11-29T00:05:31.421Z,88.42
2022-11-29T00:07:03.351Z,88.23
2022-11-29T00:08:35.576Z,88.09
2022-11-29T00:10:07.923Z,88.28
2022-11-29T00:11:58.631Z,88.19
2022-11-29T00:13:30.506Z,88.05
2022-11-29T00:15:04.901Z,88.06
2022-11-29T00:16:36.795Z,88.04
2022-11-29T00:18:08.938Z,88.12
2022-11-29T00:21:18.046Z,87.77
2022-11-29T00:22:49.855Z,88.00
2022-11-29T00:24:21.749Z,87.98
2022-11-29T00:25:53.567Z,88.12
2022-11-29T00:27:25.388Z,87.84
2022-11-29T00:28:57.231Z,87.97
2022-11-29T00:30:29.249Z,87.62
2022-11-29T00:32:01.254Z,87.53
2022-11-29T00:33:33.175Z,87.54
2022-11-29T00:35:09.468Z,87.67
2022-11-29T00:36:41.797Z,87.95
2022-11-29T00:38:13.712Z,87.69
2022-11-29T00:39:45.551Z,87.76
2022-11-29T00:41:17.394Z,87.75
2022-11-29T00:42:49.281Z,87.73
2022-11-29T00:44:21.317Z,87.70
2022-11-29T00:45:53.200Z,87.72
2022-11-29T00:47:25.083Z,87.77
2022-11-29T00:48:59.872Z,87.66
2022-11-29T00:50:31.758Z,87.88
2022-11-29T00:52:03.744Z,87.93
2022-11-29T00:53:35.842Z,87.78
2022-11-29T00:55:08.109Z,87.64
2022-11-29T00:56:39.995Z,87.69
2022-11-29T00:58:12.044Z,87.70
2022-11-29T00:59:43.999Z,87.54
2022-11-29T01:01:16.075Z,87.49
2022-11-29T01:02:48.295Z,87.48
2022-11-29T01:04:20.260Z,87.45
2022-11-29T01:05:52.419Z,87.23
2022-11-29T01:07:24.240Z,87.48
2022-11-29T01:08:56.163Z,87.42
2022-11-29T01:10:28.171Z,87.57
2022-11-29T01:12:00.042Z,87.40
2022-11-29T01:13:32.047Z,87.28
2022-11-29T01:15:07.469Z,87.27
2022-11-29T01:16:39.467Z,87.01
2022-11-29T01:18:11.705Z,87.07
2022-11-29T01:19:50.595Z,87.01
2022-11-29T01:21:23.629Z,86.95
2022-11-29T01:22:55.524Z,86.82
2022-11-29T01:26:01.356Z,86.71
2022-11-29T01:27:33.567Z,86.51
2022-11-29T01:29:05.436Z,86.58
2022-11-29T01:30:37.703Z,86.24
2022-11-29T01:32:09.613Z,86.14
2022-11-29T01:33:41.539Z,85.96
2022-11-29T01:35:13.335Z,85.92
2022-11-29T01:36:45.138Z,86.14
2022-11-29T01:38:17.226Z,86.15
2022-11-29T01:39:49.185Z,86.17
2022-11-29T01:41:22.434Z,86.39
2022-11-29T01:42:54.360Z,86.42
2022-11-29T01:44:46.816Z,86.54
2022-11-29T01:46:18.863Z,86.46
2022-11-29T01:47:51.471Z,86.26
2022-11-29T01:49:30.028Z,86.37
2022-11-29T01:51:01.925Z,86.45
2022-11-29T01:52:33.773Z,86.64
2022-11-29T01:54:05.649Z,86.71
2022-11-29T01:55:38.144Z,86.77
2022-11-29T01:57:10.259Z,86.46
2022-11-29T01:58:43.292Z,86.42
2022-11-29T02:00:19.899Z,86.30
2022-11-29T02:01:51.761Z,86.47
2022-11-29T02:03:23.615Z,86.37
2022-11-29T02:04:55.499Z,86.45
2022-11-29T02:06:27.841Z,86.50
2022-11-29T02:07:59.782Z,86.28
2022-11-29T02:09:31.714Z,86.22
2022-11-29T02:11:07.164Z,85.83
2022-11-29T02:12:48.563Z,86.00
2022-11-29T02:14:20.553Z,85.84
2022-11-29T02:16:00.741Z,85.86
2022-11-29T02:17:36.054Z,86.01
2022-11-29T02:19:16.771Z,85.84
2022-11-29T02:20:48.588Z,85.70
2022-11-29T02:22:31.416Z,85.61
2022-11-29T02:24:03.228Z,85.44
2022-11-29T02:25:40.939Z,85.41
2022-11-29T02:27:26.316Z,85.29
2022-11-29T02:29:09.378Z,85.20
2022-11-29T02:30:59.907Z,85.15
2022-11-29T02:32:50.578Z,85.14
2022-11-29T02:34:40.833Z,85.38
2022-11-29T02:36:19.805Z,85.92
2022-11-29T02:38:00.805Z,85.89
2022-11-29T02:39:44.898Z,85.93
2022-11-29T02:41:22.941Z,85.92
2022-11-29T02:43:07.044Z,85.80
2022-11-29T02:44:46.323Z,85.95
2022-11-29T02:46:36.975Z,85.93
2022-11-29T02:48:17.995Z,85.56
2022-11-29T02:49:49.781Z,85.72
2022-11-29T02:51:21.552Z,85.95
2022-11-29T02:52:53.513Z,85.86
2022-11-29T02:54:31.141Z,85.79
2022-11-29T02:56:15.248Z,86.01
2022-11-29T02:57:59.390Z,85.78
2022-11-29T02:59:31.271Z,85.54
2022-11-29T03:01:11.346Z,85.71
2022-11-29T03:02:46.336Z,85.84
2022-11-29T03:04:18.215Z,85.61
2022-11-29T03:05:51.826Z,85.91
2022-11-29T03:07:35.843Z,85.85
2022-11-29T03:09:28.352Z,85.73
2022-11-29T03:11:20.643Z,85.75
2022-11-29T03:12:52.846Z,85.68
2022-11-29T03:14:25.595Z,85.64
2022-11-29T03:16:20.498Z,85.67
2022-11-29T03:18:11.028Z,85.59
2022-11-29T03:19:42.832Z,85.16
2022-11-29T03:21:37.203Z,85.15
2022-11-29T03:23:24.461Z,85.07
2022-11-29T03:25:02.608Z,85.19
2022-11-29T03:26:54.194Z,85.00
2022-11-29T03:30:06.348Z,85.13
2022-11-29T03:31:48.086Z,85.17
2022-11-29T03:33:23.095Z,85.35
2022-11-29T03:35:01.121Z,85.51
2022-11-29T03:36:41.598Z,85.44
2022-11-29T03:38:17.437Z,85.15
2022-11-29T03:39:53.681Z,84.99
2022-11-29T03:41:44.578Z,85.11
2022-11-29T03:43:17.617Z,85.27
2022-11-29T03:44:53.363Z,84.76
2022-11-29T03:46:27.898Z,84.99
2022-11-29T03:48:05.842Z,84.78
2022-11-29T03:49:37.671Z,84.84
2022-11-29T03:51:20.169Z,84.92
2022-11-29T03:52:55.507Z,84.56
2022-11-29T03:54:47.372Z,84.79
2022-11-29T03:56:32.691Z,84.78
2022-11-29T03:58:13.861Z,84.98
2022-11-29T03:59:48.272Z,84.85
2022-11-29T04:01:22.701Z,84.96
2022-11-29T04:04:36.593Z,84.75
2022-11-29T04:06:08.413Z,84.79
2022-11-29T04:07:44.929Z,85.11
2022-11-29T04:09:36.028Z,84.70
2022-11-29T04:11:24.594Z,84.76
2022-11-29T04:13:14.219Z,84.45
2022-11-29T04:14:58.213Z,84.46
2022-11-29T04:16:48.448Z,84.04
2022-11-29T04:18:38.942Z,84.12
2022-11-29T04:20:29.473Z,84.39
2022-11-29T04:22:17.571Z,84.30
2022-11-29T04:23:49.463Z,84.17
2022-11-29T04:25:36.205Z,84.29
2022-11-29T04:27:43.490Z,84.63
2022-11-29T04:29:27.477Z,84.66
2022-11-29T04:31:05.853Z,84.52
2022-11-29T04:32:50.648Z,84.73
2022-11-29T04:34:40.525Z,84.58
2022-11-29T04:36:31.236Z,84.28
2022-11-29T04:38:09.282Z,84.59
2022-11-29T04:39:46.602Z,84.37
2022-11-29T04:41:20.316Z,84.61
2022-11-29T04:42:55.737Z,85.07
2022-11-29T04:44:46.217Z,85.30
2022-11-29T04:46:18.329Z,85.27
2022-11-29T04:47:52.584Z,85.06
2022-11-29T04:49:46.539Z,84.98
2022-11-29T04:51:36.973Z,85.12
2022-11-29T04:53:29.247Z,85.07
2022-11-29T04:55:26.372Z,85.21
2022-11-29T04:57:22.764Z,85.55
2022-11-29T04:58:57.441Z,85.43
2022-11-29T05:00:29.268Z,85.11
2022-11-29T05:02:19.566Z,85.00
2022-11-29T05:03:56.865Z,85.05
2022-11-29T05:06:01.477Z,85.20
2022-11-29T05:09:12.239Z,84.76
2022-11-29T05:10:56.891Z,85.05
2022-11-29T05:12:34.725Z,85.13
2022-11-29T05:14:15.812Z,85.25
2022-11-29T05:16:00.019Z,85.43
2022-11-29T05:17:50.356Z,85.61
2022-11-29T05:19:37.437Z,85.86
2022-11-29T05:21:10.159Z,85.79
2022-11-29T05:23:02.083Z,85.74
2022-11-29T05:24:33.913Z,85.57
2022-11-29T05:26:10.133Z,85.47
2022-11-29T05:27:46.447Z,85.55
2022-11-29T05:29:20.918Z,85.46
2022-11-29T05:31:04.898Z,85.79
2022-11-29T05:32:36.753Z,85.46
2022-11-29T05:34:11.780Z,85.33
2022-11-29T05:35:46.684Z,84.97
2022-11-29T05:37:37.306Z,85.31
2022-11-29T05:39:16.025Z,85.51
2022-11-29T05:40:50.460Z,85.72
2022-11-29T05:44:13.991Z,85.79
2022-11-29T05:45:50.338Z,85.67
2022-11-29T05:47:28.231Z,85.52
2022-11-29T05:49:13.327Z,85.38
2022-11-29T05:50:55.521Z,85.36
2022-11-29T05:52:49.986Z,85.13
2022-11-29T05:54:29.829Z,85.29
2022-11-29T05:56:07.629Z,85.27
2022-11-29T05:57:48.507Z,85.30
2022-11-29T05:59:30.917Z,85.38
2022-11-29T06:01:41.259Z,85.37
2022-11-29T06:03:22.041Z,85.29
2022-11-29T06:05:13.880Z,84.99
2022-11-29T06:06:48.589Z,84.90
2022-11-29T06:08:31.313Z,84.82
2022-11-29T06:10:05.061Z,84.95
2022-11-29T06:13:31.072Z,85.07
2022-11-29T06:15:03.129Z,85.29
2022-11-29T06:16:40.210Z,85.15
2022-11-29T06:18:50.535Z,85.28
2022-11-29T06:20:28.028Z,85.60
2022-11-29T06:22:08.911Z,85.40
2022-11-29T06:23:59.441Z,85.48
2022-11-29T06:25:38.455Z,85.78
2022-11-29T06:27:10.753Z,85.70
2022-11-29T06:28:45.349Z,85.76
2022-11-29T06:30:20.022Z,85.63
2022-11-29T06:31:53.146Z,85.65
2022-11-29T06:33:30.746Z,85.47
2022-11-29T06:35:04.120Z,85.55
2022-11-29T06:36:36.070Z,85.52
2022-11-29T06:38:31.101Z,85.51
2022-11-29T06:40:03.223Z,84.83
2022-11-29T06:41:35.339Z,84.84
2022-11-29T06:43:07.339Z,84.94
2022-11-29T06:44:39.359Z,84.60
2022-11-29T06:46:26.048Z,84.91
2022-11-29T06:48:06.972Z,85.11
2022-11-29T06:49:38.825Z,85.29
2022-11-29T06:51:16.741Z,85.37
2022-11-29T06:52:58.728Z,85.54
2022-11-29T06:54:33.397Z,85.10
2022-11-29T06:56:14.469Z,85.19
2022-11-29T06:58:03.875Z,85.46
2022-11-29T06:59:54.548Z,85.46
2022-11-29T07:01:46.428Z,85.29
2022-11-29T07:03:21.611Z,85.12
2022-11-29T07:04:56.968Z,85.41
2022-11-29T07:06:29.035Z,85.38
2022-11-29T07:08:03.126Z,85.04
2022-11-29T07:09:35.257Z,84.93
2022-11-29T07:11:07.380Z,85.13
2022-11-29T07:12:39.475Z,85.22
2022-11-29T07:14:11.464Z,85.32
2022-11-29T07:15:49.463Z,84.95
2022-11-29T07:17:26.239Z,85.08
2022-11-29T07:19:06.998Z,85.01
2022-11-29T07:20:51.135Z,85.21
2022-11-29T07:22:25.956Z,85.41
2022-11-29T07:24:00.793Z,85.55
2022-11-29T07:25:42.257Z,85.34
2022-11-29T07:27:21.730Z,85.16
2022-11-29T07:29:00.199Z,85.19
2022-11-29T07:30:35.432Z,85.31
2022-11-29T07:32:10.007Z,85.13
2022-11-29T07:33:50.951Z,85.33
2022-11-29T07:35:29.756Z,85.55
2022-11-29T07:37:04.102Z,85.38
2022-11-29T07:38:35.967Z,85.45
2022-11-29T07:40:14.983Z,85.65
2022-11-29T07:41:47.738Z,85.71
2022-11-29T07:43:19.658Z,85.43
2022-11-29T07:46:23.672Z,85.57
2022-11-29T07:47:55.541Z,85.26
2022-11-29T07:49:27.515Z,85.71
2022-11-29T07:50:59.584Z,85.82
2022-11-29T07:52:31.572Z,85.79
2022-11-29T07:54:03.539Z,85.66
2022-11-29T07:55:36.448Z,85.97
2022-11-29T07:57:08.435Z,85.91
2022-11-29T07:58:40.362Z,86.12
2022-11-29T08:00:12.715Z,86.23
2022-11-29T08:01:44.727Z,86.25
2022-11-29T09:51:56.518Z,86.99
2022-11-29T09:53:28.411Z,86.95
2022-11-29T09:55:19.015Z,86.69
2022-11-29T09:56:51.732Z,86.70
2022-11-29T09:58:26.526Z,86.24
2022-11-29T09:59:59.971Z,86.40
2022-11-29T10:01:33.190Z,86.50
2022-11-29T10:03:13.809Z,86.42
2022-11-29T10:04:47.299Z,86.27
2022-11-29T10:06:22.178Z,85.81
2022-11-29T10:07:54.025Z,85.63
2022-11-29T10:09:33.925Z,85.34
2022-11-29T10:11:17.365Z,85.08
2022-11-29T10:12:50.935Z,85.08
2022-11-29T10:14:27.869Z,85.41
2022-11-29T10:16:02.428Z,85.51
2022-11-29T10:17:42.095Z,85.75
2022-11-29T10:19:16.111Z,85.47
2022-11-29T10:20:49.313Z,85.47
2022-11-29T10:22:30.764Z,85.76
2022-11-29T10:24:07.683Z,85.80
2022-11-29T10:25:49.385Z,85.73
2022-11-29T10:27:24.144Z,85.62
2022-11-29T10:28:58.293Z,85.58
2022-11-29T10:30:30.794Z,85.40
2022-11-29T10:32:10.091Z,85.16
2022-11-29T10:33:42.516Z,85.19
2022-11-29T10:35:15.513Z,85.04
2022-11-29T10:36:59.901Z,85.09
2022-11-29T10:38:32.311Z,85.13
2022-11-29T10:40:07.490Z,85.15
2022-11-29T10:41:39.374Z,85.08
2022-11-29T10:43:11.264Z,85.04
2022-11-29T10:44:43.299Z,85.04
2022-11-29T10:46:27.007Z,85.08
2022-11-29T10:48:02.059Z,85.45
2022-11-29T10:49:34.256Z,84.78
2022-11-29T10:51:09.443Z,84.56
2022-11-29T10:52:41.679Z,84.76
2022-11-29T10:54:13.826Z,84.82
2022-11-29T10:55:48.946Z,85.09
2022-11-29T10:57:22.487Z,84.92
2022-11-29T10:58:58.818Z,85.05
2022-11-29T11:00:30.887Z,84.70
2022-11-29T11:02:04.567Z,84.51
2022-11-29T11:03:39.716Z,84.35
2022-11-29T11:05:12.456Z,85.44
2022-11-29T11:06:44.373Z,85.50
2022-11-29T11:08:17.668Z,85.13
2022-11-29T11:09:50.856Z,85.47
2022-11-29T11:11:29.594Z,85.67
2022-11-29T11:13:11.454Z,85.53
2022-11-29T11:14:43.992Z,85.87
2022-11-29T11:16:22.306Z,85.37
2022-11-29T11:18:01.413Z,85.44
2022-11-29T11:19:34.063Z,85.73
2022-11-29T11:21:08.376Z,86.02
2022-11-29T11:22:41.107Z,86.05
2022-11-29T11:24:20.168Z,86.32
2022-11-29T11:26:01.398Z,86.33
2022-11-29T11:27:42.235Z,86.62
2022-11-29T11:29:24.946Z,86.52
2022-11-29T11:31:04.979Z,86.23
2022-11-29T11:32:37.136Z,86.56
2022-11-29T11:34:26.392Z,86.58
2022-11-29T11:36:03.172Z,86.85
2022-11-29T11:37:36.121Z,86.57
2022-11-29T11:39:12.595Z,86.72
2022-11-29T11:40:44.579Z,86.77
2022-11-29T11:42:36.369Z,87.14
2022-11-29T11:44:15.272Z,86.85
2022-11-29T11:45:55.234Z,87.06
2022-11-29T11:47:28.212Z,86.41
2022-11-29T11:49:00.349Z,86.30
2022-11-29T11:50:38.208Z,86.71
2022-11-29T11:52:14.998Z,87.05
2022-11-29T11:53:49.446Z,87.15
2022-11-29T11:55:21.304Z,87.28
2022-11-29T11:56:53.374Z,87.26
2022-11-29T11:58:45.721Z,87.64
2022-11-29T12:01:02.367Z,87.58
2022-11-29T12:02:30.101Z,87.43
2022-11-29T12:04:12.387Z,87.54
2022-11-29T12:05:46.272Z,87.40
2022-11-29T12:07:29.703Z,87.38
2022-11-29T12:09:19.811Z,87.48
2022-11-29T12:10:52.797Z,87.39
2022-11-29T12:12:26.780Z,87.52
2022-11-29T12:13:59.607Z,87.62
2022-11-29T12:15:36.575Z,87.70
2022-11-29T12:17:16.874Z,87.83
2022-11-29T12:18:51.826Z,87.33
2022-11-29T12:20:44.187Z,87.12
2022-11-29T12:22:18.658Z,87.25
2022-11-29T12:23:53.149Z,87.26
2022-11-29T12:25:27.688Z,87.78
2022-11-29T12:27:01.432Z,87.74
2022-11-29T12:28:35.128Z,88.08
2022-11-29T12:31:46.464Z,88.75
2022-11-29T12:33:24.956Z,88.51
2022-11-29T12:35:03.116Z,88.77
2022-11-29T12:36:41.849Z,88.78
2022-11-29T12:38:16.681Z,89.03
2022-11-29T12:39:53.111Z,89.04
2022-11-29T12:41:31.972Z,89.16
2022-11-29T12:43:06.828Z,89.13
2022-11-29T12:44:57.507Z,89.19
2022-11-29T12:46:29.637Z,89.19
2022-11-29T12:48:05.483Z,88.87
2022-11-29T12:50:09.921Z,88.73
2022-11-29T12:51:51.162Z,88.55
2022-11-29T12:53:27.719Z,88.43
2022-11-29T12:55:03.013Z,88.49
2022-11-29T12:56:37.316Z,88.30
2022-11-29T12:58:32.513Z,88.49
2022-11-29T13:00:04.726Z,88.37
2022-11-29T13:01:41.027Z,88.49
2022-11-29T13:03:16.415Z,88.75
2022-11-29T13:05:00.214Z,88.82
2022-11-29T13:06:32.472Z,88.64
2022-11-29T13:08:15.712Z,89.03
2022-11-29T13:10:16.379Z,89.17
2022-11-29T13:11:56.143Z,89.14
2022-11-29T13:13:28.320Z,88.93
2022-11-29T13:15:17.095Z,89.17
2022-11-29T13:17:00.154Z,88.88
2022-11-29T13:18:32.206Z,88.60
2022-11-29T13:20:10.278Z,88.47
2022-11-29T13:22:02.826Z,88.32
2022-11-29T13:25:51.457Z,88.65
2022-11-29T13:27:30.674Z,88.46
2022-11-29T13:29:02.801Z,88.61
2022-11-29T13:30:35.242Z,89.09
2022-11-29T13:32:12.964Z,89.38
2022-11-29T13:35:28.251Z,89.73
2022-11-29T13:37:03.432Z,89.65
2022-11-29T13:38:55.496Z,89.60
2022-11-29T13:40:30.654Z,89.87
2022-11-29T13:42:08.272Z,89.54
2022-11-29T13:43:42.700Z,89.77
2022-11-29T13:45:26.893Z,89.47
2022-11-29T13:47:09.611Z,89.75
2022-11-29T13:48:44.530Z,89.74
2022-11-29T13:50:35.139Z,89.21
2022-11-29T13:52:10.031Z,89.16
2022-11-29T13:53:48.142Z,88.34
2022-11-29T13:55:29.792Z,88.60
2022-11-29T13:57:05.329Z,88.64
2022-11-29T13:58:37.317Z,88.37
2022-11-29T14:00:21.220Z,88.58
2022-11-29T14:01:54.325Z,88.61
2022-11-29T14:04:59.142Z,88.79
2022-11-29T14:06:34.660Z,88.76
2022-11-29T14:08:25.393Z,88.83
2022-11-29T14:10:04.493Z,88.58
2022-11-29T14:11:42.557Z,88.73
2022-11-29T14:13:14.693Z,88.75
2022-11-29T14:14:57.431Z,88.94
2022-11-29T14:16:37.208Z,88.76
2022-11-29T14:18:29.038Z,88.75
2022-11-29T14:20:19.639Z,88.46
2022-11-29T14:22:03.631Z,88.19
2022-11-29T14:23:36.801Z,88.26
2022-11-29T14:25:51.212Z,88.25
2022-11-29T14:27:23.662Z,88.20
2022-11-29T14:28:55.669Z,88.05
2022-11-29T14:30:46.653Z,88.18
2022-11-29T14:34:01.080Z,87.78
2022-11-29T14:35:35.982Z,87.21
2022-11-29T14:37:09.437Z,87.60
2022-11-29T14:38:46.184Z,87.58
2022-11-29T14:40:26.571Z,87.71
2022-11-29T14:42:17.309Z,87.57
2022-11-29T14:43:49.310Z,87.81
2022-11-29T14:45:22.738Z,87.87
2022-11-29T14:47:05.473Z,87.77
2022-11-29T14:48:37.426Z,87.90
2022-11-29T14:50:24.322Z,87.78
2022-11-29T14:52:09.398Z,87.85
2022-11-29T14:53:41.597Z,88.02
2022-11-29T14:55:16.189Z,88.09
2022-11-29T14:56:48.278Z,88.10
2022-11-29T14:58:20.941Z,88.29
2022-11-29T14:59:52.935Z,88.37
2022-11-29T15:01:25.434Z,88.40
2022-11-29T15:03:16.275Z,88.46
2022-11-29T15:04:49.053Z,88.19
2022-11-29T15:06:25.837Z,88.49
2022-11-29T15:08:16.715Z,88.44
2022-11-29T15:09:48.839Z,88.66
2022-11-29T15:11:38.350Z,88.61
2022-11-29T15:13:11.939Z,88.74
2022-11-29T15:14:46.736Z,88.88
2022-11-29T15:16:24.873Z,89.01
2022-11-29T15:18:32.198Z,89.08
2022-11-29T15:20:04.215Z,89.10
2022-11-29T15:21:40.670Z,89.43
2022-11-29T15:23:16.088Z,89.21
2022-11-29T15:25:05.415Z,89.34
2022-11-29T15:26:37.326Z,89.30
2022-11-29T15:28:17.875Z,89.40
2022-11-29T15:29:49.855Z,89.26
2022-11-29T15:31:21.870Z,89.48
2022-11-29T15:32:54.039Z,89.48
2022-11-29T15:34:28.973Z,89.48
2022-11-29T15:36:05.123Z,89.85
2022-11-29T15:37:37.637Z,89.86
2022-11-29T15:39:22.434Z,90.02
2022-11-29T15:40:54.967Z,90.07
2022-11-29T15:42:32.424Z,90.25
2022-11-29T15:44:07.922Z,90.26
2022-11-29T15:45:40.575Z,90.38
2022-11-29T15:47:16.565Z,90.35
2022-11-29T15:48:48.642Z,90.51
2022-11-29T15:50:30.582Z,90.84
2022-11-29T15:52:05.774Z,90.81
2022-11-29T15:53:37.824Z,90.90
2022-11-29T15:55:11.062Z,90.82
2022-11-29T15:56:49.529Z,90.96
2022-11-29T15:58:21.435Z,90.71
2022-11-29T15:59:54.634Z,90.61
2022-11-29T16:03:01.938Z,90.82
2022-11-29T16:04:33.953Z,90.37
2022-11-29T16:06:07.370Z,90.46
2022-11-29T16:07:39.316Z,90.10
2022-11-29T16:09:13.644Z,90.40
2022-11-29T16:10:53.670Z,90.15
2022-11-29T16:12:25.602Z,90.14
2022-11-29T16:14:12.502Z,89.90
2022-11-29T16:15:49.192Z,90.08
2022-11-29T16:17:21.341Z,89.89
2022-11-29T16:18:53.422Z,90.07
2022-11-29T16:20:26.074Z,90.12
2022-11-29T16:22:13.103Z,89.83
2022-11-29T16:23:47.014Z,89.57
2022-11-29T16:25:19.752Z,89.33
2022-11-29T16:26:51.963Z,89.53
2022-11-29T16:28:24.046Z,89.34
2022-11-29T16:29:56.242Z,89.56
2022-11-29T16:33:05.090Z,89.43
2022-11-29T16:34:37.175Z,89.24
2022-11-29T16:36:16.991Z,89.16
2022-11-29T16:37:48.976Z,89.10
2022-11-29T16:39:22.383Z,89.40
2022-11-29T16:41:01.379Z,89.51
2022-11-29T16:42:34.190Z,89.60
2022-11-29T16:44:06.678Z,89.48
2022-11-29T16:45:41.767Z,89.58
2022-11-29T16:47:23.952Z,89.60
2022-11-29T16:48:56.763Z,89.39
2022-11-29T16:50:35.203Z,89.53
2022-11-29T16:52:25.855Z,89.53
2022-11-29T16:53:57.871Z,89.29
2022-11-29T16:55:29.744Z,89.08
2022-11-29T16:57:05.914Z,89.01
2022-11-29T16:59:16.574Z,89.11
2022-11-29T17:00:31.679Z,89.22
2022-11-29T17:02:03.873Z,89.22
2022-11-29T17:03:36.110Z,89.27
2022-11-29T17:05:09.034Z,89.07
2022-11-29T17:06:41.145Z,89.28
2022-11-29T17:08:13.595Z,89.35
2022-11-29T17:09:46.194Z,89.56
2022-11-29T17:11:18.388Z,89.34
2022-11-29T17:12:50.819Z,89.34
2022-11-29T17:14:22.942Z,89.35
2022-11-29T17:15:55.063Z,89.38
2022-11-29T17:17:27.144Z,89.41
2022-11-29T17:19:02.175Z,89.54
2022-11-29T17:20:34.542Z,89.25
2022-11-29T17:22:06.696Z,89.46
2022-11-29T17:23:38.667Z,89.53
2022-11-29T17:25:10.887Z,89.32
2022-11-29T17:26:43.321Z,89.13
2022-11-29T17:28:15.689Z,89.17
2022-11-29T17:29:47.817Z,89.38
2022-11-29T17:31:21.636Z,89.40
2022-11-29T17:32:53.809Z,89.29
2022-11-29T17:34:26.020Z,89.29
2022-11-29T17:36:03.808Z,89.32
2022-11-29T17:37:35.753Z,89.43
2022-11-29T17:39:07.738Z,89.54
2022-11-29T17:40:40.505Z,89.65
2022-11-29T17:42:12.749Z,89.60
2022-11-29T17:43:44.832Z,89.38
2022-11-29T17:45:17.028Z,89.54
2022-11-29T17:46:48.980Z,89.61
2022-11-29T17:48:20.997Z,89.35
2022-11-29T17:49:52.918Z,89.43
2022-11-29T17:53:19.909Z,89.29
2022-11-29T17:54:51.893Z,89.25
2022-11-29T17:56:24.990Z,89.17
2022-11-29T17:57:56.949Z,88.92
2022-11-29T17:59:29.140Z,88.93
2022-11-29T18:01:08.270Z,88.99
2022-11-29T18:02:40.225Z,88.79
2022-11-29T18:04:12.230Z,88.85
2022-11-29T18:05:44.098Z,88.73
2022-11-29T18:07:17.468Z,88.86
2022-11-29T18:08:50.149Z,88.92
2022-11-29T18:10:22.659Z,89.02
2022-11-29T18:11:54.607Z,88.67
2022-11-29T18:13:27.973Z,88.70
2022-11-29T18:16:34.070Z,88.73
2022-11-29T18:18:06.301Z,88.75
2022-11-29T18:19:38.492Z,88.64
2022-11-29T18:21:10.835Z,88.64
2022-11-29T18:24:21.944Z,88.45
2022-11-29T18:26:00.678Z,88.81
2022-11-29T18:27:32.634Z,88.72
2022-11-29T18:30:42.582Z,88.50
2022-11-29T18:32:14.728Z,88.39
2022-11-29T18:33:47.179Z,88.55
2022-11-29T18:35:19.071Z,88.69
2022-11-29T18:36:51.057Z,88.33
2022-11-29T18:38:22.995Z,88.43
2022-11-29T18:39:55.012Z,88.21
2022-11-29T18:41:28.580Z,88.33
2022-11-29T18:43:00.653Z,88.11
2022-11-29T18:44:32.872Z,88.43
2022-11-29T18:46:08.533Z,88.25
2022-11-29T18:47:40.656Z,88.43
2022-11-29T18:49:13.889Z,88.45
2022-11-29T18:50:48.544Z,88.80
2022-11-29T18:52:20.466Z,88.90
2022-11-29T18:53:52.677Z,88.65
2022-11-29T18:55:25.210Z,89.02
2022-11-29T18:56:57.406Z,88.89
2022-11-29T18:58:29.525Z,89.24
2022-11-29T19:00:01.562Z,89.20
2022-11-29T19:01:35.028Z,89.19
2022-11-29T19:03:06.933Z,89.11
2022-11-29T19:04:38.820Z,89.32
2022-11-29T19:06:14.623Z,89.31
2022-11-29T19:07:49.438Z,89.26
2022-11-29T19:09:21.983Z,89.06
2022-11-29T19:10:53.972Z,89.01
2022-11-29T19:12:26.018Z,88.78
2022-11-29T19:14:03.574Z,89.01
2022-11-29T19:15:35.666Z,89.28
2022-11-29T19:17:07.624Z,89.28
2022-11-29T19:18:39.655Z,89.18
2022-11-29T19:20:12.086Z,89.09
2022-11-29T19:21:46.520Z,88.80
2022-11-29T19:23:24.243Z,88.75
2022-11-29T19:24:56.971Z,88.82
2022-11-29T19:26:29.986Z,88.62
2022-11-29T19:28:02.194Z,88.62
2022-11-29T19:29:39.535Z,88.53
2022-11-29T19:31:12.394Z,88.59
2022-11-29T19:32:44.305Z,88.43
2022-11-29T19:34:16.660Z,88.69
2022-11-29T19:35:48.527Z,88.61
2022-11-29T19:37:20.360Z,88.53
2022-11-29T19:38:54.081Z,88.87
2022-11-29T19:40:26.495Z,88.85
2022-11-29T19:41:58.663Z,88.70
2022-11-29T19:43:32.183Z,88.68
2022-11-29T19:45:20.393Z,88.67
2022-11-29T19:46:52.668Z,88.50
2022-11-29T19:48:24.901Z,88.67
2022-11-29T19:50:02.365Z,88.47
2022-11-29T19:51:35.720Z,88.50
2022-11-29T19:53:08.336Z,88.51
2022-11-29T19:54:40.292Z,88.52
2022-11-29T19:56:13.086Z,88.50
2022-11-29T19:57:45.009Z,88.52
2022-11-29T19:59:17.103Z,88.45
2022-11-29T20:00:49.030Z,88.47
2022-11-29T20:02:21.055Z,88.22
2022-11-29T20:03:53.263Z,88.17
2022-11-29T20:05:25.159Z,88.53
2022-11-29T20:06:58.371Z,88.36
2022-11-29T20:08:30.593Z,88.33
2022-11-29T20:10:02.745Z,88.31
2022-11-29T20:11:34.847Z,88.22
2022-11-29T20:13:08.258Z,88.24
2022-11-29T20:14:40.109Z,88.12
2022-11-29T20:16:13.216Z,88.04
2022-11-29T20:17:45.516Z,88.22
2022-11-29T20:19:17.576Z,88.17
2022-11-29T20:20:49.694Z,88.44
2022-11-29T20:22:21.681Z,88.44
2022-11-29T20:23:57.231Z,88.54
2022-11-29T20:25:29.112Z,88.16
2022-11-29T20:27:01.214Z,88.24
2022-11-29T20:28:34.265Z,88.38
2022-11-29T20:30:07.419Z,88.10
2022-11-29T20:31:44.346Z,88.26
2022-11-29T20:33:21.327Z,88.30
2022-11-29T20:34:53.455Z,88.31
2022-11-29T20:36:44.281Z,88.35
2022-11-29T20:38:19.520Z,88.56
2022-11-29T20:39:53.779Z,88.73
2022-11-29T20:41:27.747Z,88.82
2022-11-29T20:42:59.839Z,89.16
2022-11-29T20:44:38.570Z,89.15
2022-11-29T20:46:10.780Z,89.27
2022-11-29T20:47:42.889Z,89.31
2022-11-29T20:49:15.641Z,89.37
2022-11-29T20:50:49.426Z,89.44
2022-11-29T20:52:29.076Z,89.52
2022-11-29T20:54:01.022Z,89.28
2022-11-29T20:55:32.991Z,89.54
2022-11-29T20:57:05.118Z,89.54
2022-11-29T20:58:37.443Z,89.74
2022-11-29T21:00:11.607Z,89.60
2022-11-29T21:01:43.855Z,89.76
2022-11-29T21:03:16.317Z,89.59
2022-11-29T21:04:48.447Z,89.75
2022-11-29T21:06:20.493Z,89.49
2022-11-29T21:07:52.508Z,89.60
2022-11-29T21:09:24.420Z,89.53
2022-11-29T21:11:02.997Z,89.57
2022-11-29T21:12:35.152Z,89.06
2022-11-29T21:14:08.408Z,89.18
2022-11-29T21:15:40.690Z,89.16
2022-11-29T21:17:12.785Z,89.32
2022-11-29T21:18:44.901Z,89.31
2022-11-29T21:20:18.406Z,89.31
2022-11-29T21:22:02.844Z,89.39
2022-11-29T21:23:37.652Z,89.28
2022-11-29T21:25:10.028Z,89.21
2022-11-29T21:26:45.369Z,89.20
2022-11-29T21:28:17.473Z,89.05
2022-11-29T21:29:49.616Z,89.13
2022-11-29T21:31:21.817Z,89.02
2022-11-29T21:34:28.554Z,89.06
2022-11-29T21:36:05.519Z,89.16
2022-11-29T21:37:38.021Z,89.12
2022-11-29T21:39:12.042Z,89.09
2022-11-29T21:40:44.138Z,89.05
2022-11-29T21:42:16.096Z,88.90
2022-11-29T21:44:05.959Z,89.11
2022-11-29T21:45:38.968Z,89.01
2022-11-29T21:47:10.897Z,88.87
2022-11-29T21:48:42.986Z,88.86
2022-11-29T21:50:14.989Z,88.96
2022-11-29T21:51:46.844Z,88.61
2022-11-29T21:53:18.691Z,88.71
2022-11-29T21:54:50.623Z,88.85
2022-11-29T21:56:22.589Z,88.63
2022-11-29T21:57:54.475Z,88.76
2022-11-29T21:59:26.399Z,88.75
2022-11-29T22:01:05.516Z,88.99
2022-11-29T22:02:37.549Z,89.00
2022-11-29T22:04:09.514Z,89.03
2022-11-29T22:05:41.449Z,89.15
2022-11-29T22:07:13.272Z,88.98
2022-11-29T22:08:47.726Z,88.96
2022-11-29T22:10:19.693Z,88.80
2022-11-29T22:11:51.782Z,88.70
2022-11-29T22:13:23.755Z,88.64
2022-11-29T22:14:55.682Z,88.61
2022-11-29T22:16:27.977Z,88.57
2022-11-29T22:17:59.948Z,88.57
2022-11-29T22:19:35.132Z,88.48
2022-11-29T22:21:07.319Z,88.38
2022-11-29T22:22:39.161Z,88.50
2022-11-29T22:24:11.561Z,88.46
2022-11-29T22:25:43.385Z,88.39
2022-11-29T22:27:15.252Z,88.27
2022-11-29T22:28:47.099Z,88.31
2022-11-29T22:30:19.131Z,88.52
2022-11-29T22:31:53.113Z,88.65
2022-11-29T22:33:25.095Z,88.51
2022-11-29T22:34:56.971Z,88.32
2022-11-29T22:36:28.980Z,88.42
2022-11-29T22:38:00.820Z,88.48
2022-11-29T22:39:32.804Z,88.38
2022-11-29T22:41:08.938Z,88.47
2022-11-29T22:42:41.734Z,88.26
2022-11-29T22:44:13.719Z,88.11
2022-11-29T22:45:45.612Z,88.22
2022-11-29T22:47:17.527Z,88.09
2022-11-29T22:48:51.062Z,87.97
2022-11-29T22:50:22.936Z,88.07
2022-11-29T22:51:55.251Z,87.93
2022-11-29T22:53:27.111Z,87.99
2022-11-29T22:55:04.422Z,87.86
2022-11-29T22:56:38.511Z,87.87
2022-11-29T22:58:10.305Z,87.87
2022-11-29T22:59:42.099Z,88.07
2022-11-29T23:02:52.576Z,87.88
2022-11-29T23:04:24.498Z,87.83
2022-11-29T23:05:56.378Z,87.89